createdAt,value
2018-09-30T00:01:57.636Z,101700.28
2018-09-30T00:04:26.203Z,101694.70
2018-09-30T00:06:54.924Z,101698.54
2018-09-30T00:09:30.288Z,101696.80
2018-09-30T00:12:00.683Z,101693.41
2018-09-30T00:14:29.278Z,101693.57
2018-09-30T00:16:58.366Z,101688.43
2018-09-30T00:19:27.062Z,101687.98
2018-09-30T00:21:55.653Z,101677.42
2018-09-30T00:24:29.555Z,101669.28
2018-09-30T00:26:59.756Z,101668.70
2018-09-30T00:29:29.766Z,101667.42
2018-09-30T00:31:59.302Z,101661.89
2018-09-30T00:34:29.006Z,101657.63
2018-09-30T00:36:58.836Z,101652.09
2018-09-30T00:39:28.098Z,101638.31
2018-09-30T00:41:56.666Z,101638.77
2018-09-30T00:44:25.403Z,101630.98
2018-09-30T00:46:54.390Z,101636.31
2018-09-30T00:49:23.041Z,101630.31
2018-09-30T00:51:51.634Z,101627.69
2018-09-30T00:54:20.328Z,101624.62
2018-09-30T00:56:48.935Z,101621.23
2018-09-30T00:59:17.643Z,101618.21
2018-09-30T01:01:46.291Z,101623.34
2018-09-30T01:04:14.883Z,101615.65
2018-09-30T01:06:43.420Z,101611.39
2018-09-30T01:09:14.614Z,101606.78
2018-09-30T01:11:43.930Z,101604.73
2018-09-30T01:14:12.601Z,101598.44
2018-09-30T01:16:42.459Z,101595.00
2018-09-30T01:19:11.346Z,101587.31
2018-09-30T01:21:39.920Z,101592.04
2018-09-30T01:24:08.707Z,101591.21
2018-09-30T01:26:37.378Z,101590.39
2018-09-30T01:29:06.198Z,101587.83
2018-09-30T01:31:34.971Z,101586.95
2018-09-30T01:34:04.217Z,101581.83
2018-09-30T01:36:32.853Z,101569.44
2018-09-30T01:39:01.896Z,101570.34
2018-09-30T01:41:30.416Z,101564.66
2018-09-30T01:43:59.232Z,101556.42
2018-09-30T01:46:27.794Z,101545.41
2018-09-30T01:48:56.445Z,101547.09
2018-09-30T01:51:24.975Z,101554.46
2018-09-30T01:53:53.554Z,101545.41
2018-09-30T01:56:22.191Z,101543.76
2018-09-30T01:58:50.746Z,101545.08
2018-09-30T02:01:19.314Z,101545.04
2018-09-30T02:03:47.851Z,101545.86
2018-09-30T02:06:16.437Z,101545.86
2018-09-30T02:08:44.926Z,101541.56
2018-09-30T02:11:13.511Z,101539.77
2018-09-30T02:13:42.392Z,101533.69
2018-09-30T02:16:11.020Z,101524.25
2018-09-30T02:18:40.100Z,101522.45
2018-09-30T02:21:08.778Z,101525.44
2018-09-30T02:23:37.428Z,101518.98
2018-09-30T02:26:06.072Z,101516.83
2018-09-30T02:28:34.716Z,101515.59
2018-09-30T02:31:03.441Z,101510.38
2018-09-30T02:33:32.102Z,101515.59
2018-09-30T02:36:00.792Z,101510.94
2018-09-30T02:38:29.429Z,101508.83
2018-09-30T02:40:58.017Z,101504.98
2018-09-30T02:43:26.625Z,101497.98
2018-09-30T02:45:55.246Z,101493.78
2018-09-30T02:48:23.921Z,101486.91
2018-09-30T02:50:52.516Z,101490.11
2018-09-30T02:53:21.304Z,101486.31
2018-09-30T02:55:50.081Z,101481.29
2018-09-30T02:58:18.740Z,101479.55
2018-09-30T03:00:47.484Z,101476.52
2018-09-30T03:03:17.234Z,101467.56
2018-09-30T03:05:46.014Z,101464.59
2018-09-30T03:08:19.733Z,101461.44
2018-09-30T03:10:48.386Z,101462.71
2018-09-30T03:13:17.087Z,101460.16
2018-09-30T03:15:45.819Z,101460.20
2018-09-30T03:18:14.717Z,101451.09
2018-09-30T03:20:43.314Z,101461.44
2018-09-30T03:23:11.971Z,101459.23
2018-09-30T03:25:40.609Z,101463.57
2018-09-30T03:28:09.130Z,101455.90
2018-09-30T03:30:37.637Z,101453.38
2018-09-30T03:33:06.394Z,101453.34
2018-09-30T03:35:34.979Z,101456.40
2018-09-30T03:38:04.333Z,101455.62
2018-09-30T03:40:32.906Z,101446.63
2018-09-30T03:43:01.695Z,101445.70
2018-09-30T03:45:30.251Z,101444.88
2018-09-30T03:47:58.951Z,101445.34
2018-09-30T03:50:27.674Z,101445.89
2018-09-30T03:52:56.329Z,101444.34
2018-09-30T03:55:24.996Z,101438.84
2018-09-30T03:57:53.553Z,101442.60
2018-09-30T04:00:22.328Z,101443.37
2018-09-30T04:02:50.951Z,101433.77
2018-09-30T04:05:19.570Z,101436.28
2018-09-30T04:07:48.132Z,101432.90
2018-09-30T04:10:16.874Z,101431.20
2018-09-30T04:12:45.395Z,101423.53
2018-09-30T04:15:14.017Z,101418.40
2018-09-30T04:17:42.630Z,101425.67
2018-09-30T04:20:11.839Z,101420.97
2018-09-30T04:22:40.641Z,101426.18
2018-09-30T04:25:09.175Z,101420.97
2018-09-30T04:27:37.830Z,101420.14
2018-09-30T04:30:06.397Z,101421.69
2018-09-30T04:32:34.933Z,101423.02
2018-09-30T04:35:03.908Z,101423.52
2018-09-30T04:37:32.592Z,101425.72
2018-09-30T04:40:01.465Z,101425.72
2018-09-30T04:42:30.001Z,101426.59
2018-09-30T04:44:58.551Z,101426.59
2018-09-30T04:47:27.257Z,101420.19
2018-09-30T04:49:55.899Z,101426.13
2018-09-30T04:52:24.587Z,101415.94
2018-09-30T04:54:53.257Z,101414.66
2018-09-30T04:57:21.794Z,101412.41
2018-09-30T04:59:50.425Z,101410.77
2018-09-30T05:02:18.986Z,101420.09
2018-09-30T05:04:47.783Z,101409.30
2018-09-30T05:07:16.337Z,101410.99
2018-09-30T05:09:45.135Z,101411.91
2018-09-30T05:12:13.908Z,101417.89
2018-09-30T05:14:42.576Z,101419.59
2018-09-30T05:17:11.233Z,101420.47
2018-09-30T05:19:39.934Z,101417.08
2018-09-30T05:22:08.519Z,101418.77
2018-09-30T05:24:37.193Z,101424.34
2018-09-30T05:27:05.891Z,101414.88
2018-09-30T05:29:34.507Z,101414.47
2018-09-30T05:32:03.362Z,101409.77
2018-09-30T05:34:31.859Z,101405.41
2018-09-30T05:37:00.504Z,101402.80
2018-09-30T05:39:29.162Z,101401.93
2018-09-30T05:41:57.763Z,101403.13
2018-09-30T05:44:26.329Z,101403.09
2018-09-30T05:46:54.932Z,101398.78
2018-09-30T05:49:23.536Z,101401.77
2018-09-30T05:51:52.176Z,101406.10
2018-09-30T05:54:20.912Z,101398.92
2018-09-30T05:56:49.608Z,101403.72
2018-09-30T05:59:18.496Z,101398.23
2018-09-30T06:01:47.110Z,101398.34
2018-09-30T06:04:15.923Z,101390.19
2018-09-30T06:06:44.852Z,101397.06
2018-09-30T06:09:14.872Z,101396.69
2018-09-30T06:11:45.261Z,101398.97
2018-09-30T06:14:15.187Z,101395.17
2018-09-30T06:16:44.223Z,101398.19
2018-09-30T06:19:12.870Z,101392.66
2018-09-30T06:21:42.075Z,101398.41
2018-09-30T06:24:11.747Z,101397.67
2018-09-30T06:26:40.942Z,101396.97
2018-09-30T06:29:09.631Z,101400.97
2018-09-30T06:31:38.433Z,101396.34
2018-09-30T06:34:07.131Z,101392.61
2018-09-30T06:36:35.748Z,101393.59
2018-09-30T06:39:06.304Z,101394.09
2018-09-30T06:41:34.812Z,101389.45
2018-09-30T06:44:03.645Z,101395.55
2018-09-30T06:46:32.215Z,101393.96
2018-09-30T06:49:00.926Z,101393.66
2018-09-30T06:51:29.541Z,101393.75
2018-09-30T06:53:58.155Z,101394.23
2018-09-30T06:56:26.758Z,101384.94
2018-09-30T06:58:55.369Z,101386.25
2018-09-30T07:01:24.625Z,101391.51
2018-09-30T07:03:53.201Z,101385.59
2018-09-30T07:06:21.763Z,101380.94
2018-09-30T07:08:50.448Z,101383.14
2018-09-30T07:11:19.205Z,101387.08
2018-09-30T07:13:47.740Z,101384.16
2018-09-30T07:16:16.398Z,101391.44
2018-09-30T07:18:44.989Z,101394.03
2018-09-30T07:21:13.695Z,101391.55
2018-09-30T07:23:42.179Z,101389.89
2018-09-30T07:26:10.714Z,101387.39
2018-09-30T07:28:39.515Z,101380.60
2018-09-30T07:31:08.230Z,101378.91
2018-09-30T07:33:36.811Z,101382.84
2018-09-30T07:36:05.474Z,101377.31
2018-09-30T07:38:34.412Z,101385.08
2018-09-30T07:41:03.225Z,101378.25
2018-09-30T07:43:31.830Z,101375.72
2018-09-30T07:46:00.572Z,101374.47
2018-09-30T07:48:29.216Z,101377.11
2018-09-30T07:50:57.875Z,101377.12
2018-09-30T07:53:26.575Z,101377.17
2018-09-30T07:55:55.289Z,101371.67
2018-09-30T07:58:24.186Z,101367.84
2018-09-30T08:00:52.923Z,101362.72
2018-09-30T08:03:21.650Z,101356.77
2018-09-30T08:05:50.782Z,101356.34
2018-09-30T08:08:19.598Z,101353.80
2018-09-30T08:10:48.372Z,101352.95
2018-09-30T08:13:17.165Z,101351.73
2018-09-30T08:15:46.358Z,101346.16
2018-09-30T08:18:15.178Z,101341.89
2018-09-30T08:20:43.936Z,101344.09
2018-09-30T08:23:12.643Z,101346.70
2018-09-30T08:25:41.281Z,101335.56
2018-09-30T08:28:09.962Z,101335.56
2018-09-30T08:30:38.859Z,101336.03
2018-09-30T08:33:07.504Z,101331.75
2018-09-30T08:35:36.075Z,101323.60
2018-09-30T08:38:11.122Z,101328.33
2018-09-30T08:40:44.825Z,101332.20
2018-09-30T08:43:13.519Z,101328.77
2018-09-30T08:45:42.206Z,101332.22
2018-09-30T08:48:10.775Z,101327.48
2018-09-30T08:50:39.532Z,101337.39
2018-09-30T08:53:08.288Z,101330.07
2018-09-30T08:55:36.912Z,101334.81
2018-09-30T08:58:05.544Z,101342.53
2018-09-30T09:00:34.550Z,101339.52
2018-09-30T09:03:03.676Z,101331.34
2018-09-30T09:05:32.492Z,101333.06
2018-09-30T09:08:02.387Z,101329.63
2018-09-30T09:10:31.057Z,101319.73
2018-09-30T09:13:00.282Z,101317.98
2018-09-30T09:15:29.155Z,101320.98
2018-09-30T09:17:57.742Z,101316.27
2018-09-30T09:20:26.350Z,101304.63
2018-09-30T09:22:54.958Z,101297.30
2018-09-30T09:25:23.696Z,101298.56
2018-09-30T09:27:52.387Z,101289.07
2018-09-30T09:30:21.182Z,101290.76
2018-09-30T09:32:49.920Z,101288.58
2018-09-30T09:35:18.648Z,101284.69
2018-09-30T09:37:47.373Z,101279.05
2018-09-30T09:40:16.087Z,101278.58
2018-09-30T09:42:44.872Z,101278.97
2018-09-30T09:45:13.604Z,101277.17
2018-09-30T09:47:42.201Z,101277.13
2018-09-30T09:50:10.961Z,101274.92
2018-09-30T09:52:39.675Z,101283.02
2018-09-30T09:55:08.385Z,101277.40
2018-09-30T09:57:37.128Z,101276.91
2018-09-30T10:00:06.553Z,101268.27
2018-09-30T10:02:35.379Z,101274.23
2018-09-30T10:05:04.135Z,101266.84
2018-09-30T10:07:32.903Z,101262.86
2018-09-30T10:10:01.794Z,101262.36
2018-09-30T10:12:30.605Z,101245.08
2018-09-30T10:14:59.354Z,101243.70
2018-09-30T10:17:28.015Z,101245.70
2018-09-30T10:19:56.631Z,101235.27
2018-09-30T10:22:25.397Z,101231.30
2018-09-30T10:24:54.035Z,101235.14
2018-09-30T10:27:22.722Z,101225.98
2018-09-30T10:29:51.342Z,101228.53
2018-09-30T10:32:20.039Z,101222.48
2018-09-30T10:34:48.625Z,101211.19
2018-09-30T10:37:17.182Z,101202.55
2018-09-30T10:39:46.249Z,101201.16
2018-09-30T10:42:14.835Z,101204.13
2018-09-30T10:44:43.779Z,101197.16
2018-09-30T10:47:12.381Z,101194.45
2018-09-30T10:49:41.004Z,101197.80
2018-09-30T10:52:09.594Z,101188.63
2018-09-30T10:54:38.342Z,101182.95
2018-09-30T10:57:07.121Z,101183.70
2018-09-30T10:59:35.860Z,101176.63
2018-09-30T11:02:04.475Z,101174.32
2018-09-30T11:04:33.100Z,101167.29
2018-09-30T11:07:08.098Z,101162.30
2018-09-30T11:09:36.797Z,101154.32
2018-09-30T11:12:05.515Z,101152.02
2018-09-30T11:14:34.211Z,101152.45
2018-09-30T11:17:03.782Z,101145.03
2018-09-30T11:19:32.428Z,101151.38
2018-09-30T11:22:01.667Z,101148.64
2018-09-30T11:24:30.351Z,101136.98
2018-09-30T11:26:59.100Z,101130.00
2018-09-30T11:29:27.771Z,101119.84
2018-09-30T11:31:56.486Z,101123.45
2018-09-30T11:34:25.161Z,101117.99
2018-09-30T11:36:53.756Z,101111.70
2018-09-30T11:39:22.488Z,101106.69
2018-09-30T11:41:51.051Z,101095.97
2018-09-30T11:44:19.621Z,101091.23
2018-09-30T11:46:48.255Z,101087.30
2018-09-30T11:49:16.953Z,101091.98
2018-09-30T11:51:45.617Z,101087.06
2018-09-30T11:54:14.281Z,101079.95
2018-09-30T11:56:43.496Z,101068.53
2018-09-30T11:59:12.246Z,101060.64
2018-09-30T12:01:41.062Z,101058.73
2018-09-30T12:04:09.737Z,101058.98
2018-09-30T12:06:38.252Z,101056.99
2018-09-30T12:09:08.846Z,101047.06
2018-09-30T12:11:37.745Z,101043.98
2018-09-30T12:14:06.653Z,101043.34
2018-09-30T12:16:39.485Z,101032.83
2018-09-30T12:19:08.123Z,101036.90
2018-09-30T12:21:36.783Z,101031.16
2018-09-30T12:24:05.467Z,101028.77
2018-09-30T12:26:34.037Z,101022.38
2018-09-30T12:29:02.972Z,101014.61
2018-09-30T12:31:31.605Z,100997.81
2018-09-30T12:34:00.301Z,100999.77
2018-09-30T12:36:29.030Z,100992.06
2018-09-30T12:38:57.698Z,100992.91
2018-09-30T12:41:26.415Z,100988.01
2018-09-30T12:43:55.059Z,100990.92
2018-09-30T12:46:23.751Z,100979.55
2018-09-30T12:48:52.523Z,100982.49
2018-09-30T12:51:21.032Z,100980.47
2018-09-30T12:53:49.623Z,100971.59
2018-09-30T12:56:18.398Z,100974.05
2018-09-30T12:58:47.069Z,100972.30
2018-09-30T13:01:15.712Z,100966.74
2018-09-30T13:03:44.466Z,100960.67
2018-09-30T13:06:13.572Z,100956.30
2018-09-30T13:08:42.242Z,100950.70
2018-09-30T13:11:10.915Z,100949.33
2018-09-30T13:13:39.464Z,100946.22
2018-09-30T13:16:08.120Z,100940.03
2018-09-30T13:18:36.752Z,100934.09
2018-09-30T13:21:05.640Z,100935.17
2018-09-30T13:23:34.209Z,100924.05
2018-09-30T13:26:03.893Z,100924.41
2018-09-30T13:28:32.545Z,100915.11
2018-09-30T13:31:01.543Z,100915.72
2018-09-30T13:33:30.220Z,100920.45
2018-09-30T13:35:58.833Z,100911.89
2018-09-30T13:38:27.556Z,100908.75
2018-09-30T13:40:56.271Z,100911.63
2018-09-30T13:43:24.931Z,100906.95
2018-09-30T13:45:53.660Z,100900.41
2018-09-30T13:48:22.252Z,100898.56
2018-09-30T13:50:50.924Z,100899.45
2018-09-30T13:56:04.177Z,100891.02
2018-09-30T13:58:32.821Z,100885.66
2018-09-30T14:01:02.638Z,100891.21
2018-09-30T14:03:31.382Z,100882.72
2018-09-30T14:06:00.105Z,100884.16
2018-09-30T14:08:28.923Z,100877.86
2018-09-30T14:10:57.615Z,100878.30
2018-09-30T14:13:26.155Z,100872.86
2018-09-30T14:15:54.808Z,100878.30
2018-09-30T14:18:23.384Z,100865.67
2018-09-30T14:20:52.013Z,100860.84
2018-09-30T14:23:20.640Z,100859.92
2018-09-30T14:25:49.306Z,100858.25
2018-09-30T14:28:18.011Z,100855.20
2018-09-30T14:30:46.979Z,100852.59
2018-09-30T14:33:15.829Z,100852.19
2018-09-30T14:35:44.704Z,100857.18
2018-09-30T14:38:13.336Z,100859.06
2018-09-30T14:40:41.971Z,100856.80
2018-09-30T14:43:10.753Z,100853.95
2018-09-30T14:45:39.423Z,100858.16
2018-09-30T14:48:08.256Z,100848.34
2018-09-30T14:50:36.943Z,100855.37
2018-09-30T14:53:05.530Z,100843.63
2018-09-30T14:55:34.240Z,100843.68
2018-09-30T14:58:03.769Z,100837.27
2018-09-30T15:00:32.413Z,100837.05
2018-09-30T15:03:00.968Z,100836.19
2018-09-30T15:05:29.520Z,100838.45
2018-09-30T15:07:58.285Z,100836.52
2018-09-30T15:10:27.008Z,100841.26
2018-09-30T15:12:56.419Z,100836.51
2018-09-30T15:15:25.152Z,100831.30
2018-09-30T15:17:53.679Z,100828.28
2018-09-30T15:20:22.353Z,100833.28
2018-09-30T15:22:50.849Z,100829.06
2018-09-30T15:25:19.654Z,100824.92
2018-09-30T15:27:48.256Z,100824.30
2018-09-30T15:30:17.267Z,100826.58
2018-09-30T15:32:46.252Z,100822.70
2018-09-30T15:35:14.804Z,100822.77
2018-09-30T15:37:43.729Z,100822.45
2018-09-30T15:40:13.096Z,100819.98
2018-09-30T15:42:41.763Z,100823.63
2018-09-30T15:45:11.006Z,100821.60
2018-09-30T15:47:39.669Z,100820.27
2018-09-30T15:50:08.375Z,100816.05
2018-09-30T15:52:37.096Z,100822.23
2018-09-30T15:55:05.817Z,100816.42
2018-09-30T15:57:34.468Z,100824.75
2018-09-30T16:00:03.792Z,100819.62
2018-09-30T16:02:32.565Z,100831.02
2018-09-30T16:05:01.783Z,100835.89
2018-09-30T16:07:30.453Z,100833.87
2018-09-30T16:09:59.194Z,100834.03
2018-09-30T16:12:27.745Z,100826.80
2018-09-30T16:14:56.447Z,100831.75
2018-09-30T16:17:25.169Z,100837.11
2018-09-30T16:19:53.787Z,100832.89
2018-09-30T16:22:22.513Z,100833.86
2018-09-30T16:24:51.304Z,100830.96
2018-09-30T16:27:19.920Z,100832.78
2018-09-30T16:29:48.471Z,100838.97
2018-09-30T16:32:17.166Z,100836.92
2018-09-30T16:34:45.840Z,100835.30
2018-09-30T16:37:14.501Z,100838.85
2018-09-30T16:39:43.278Z,100846.72
2018-09-30T16:42:11.860Z,100841.23
2018-09-30T16:44:40.606Z,100843.91
2018-09-30T16:47:09.248Z,100841.92
2018-09-30T16:49:37.909Z,100836.00
2018-09-30T16:52:06.602Z,100840.05
2018-09-30T16:54:35.196Z,100840.61
2018-09-30T16:57:03.832Z,100848.07
2018-09-30T16:59:32.351Z,100850.39
2018-09-30T17:02:00.954Z,100847.55
2018-09-30T17:04:29.658Z,100852.45
2018-09-30T17:06:58.231Z,100850.83
2018-09-30T17:09:26.783Z,100853.10
2018-09-30T17:11:55.426Z,100858.39
2018-09-30T17:14:24.284Z,100861.11
2018-09-30T17:16:53.033Z,100866.38
2018-09-30T17:19:21.621Z,100865.66
2018-09-30T17:21:50.230Z,100869.20
2018-09-30T17:24:18.988Z,100860.69
2018-09-30T17:26:47.983Z,100862.14
2018-09-30T17:29:18.102Z,100870.83
2018-09-30T17:31:46.723Z,100867.88
2018-09-30T17:34:15.438Z,100867.16
2018-09-30T17:36:44.084Z,100868.95
2018-09-30T17:39:12.901Z,100866.44
2018-09-30T17:41:41.636Z,100874.70
2018-09-30T17:44:10.249Z,100879.12
2018-09-30T17:46:38.989Z,100879.62
2018-09-30T17:49:07.616Z,100882.28
2018-09-30T17:51:36.403Z,100882.30
2018-09-30T17:54:05.219Z,100887.97
2018-09-30T17:56:33.882Z,100885.88
2018-09-30T17:59:02.769Z,100887.61
2018-09-30T18:01:31.399Z,100876.02
2018-09-30T18:04:00.199Z,100885.56
2018-09-30T18:06:28.994Z,100883.48
2018-09-30T18:08:57.591Z,100885.27
2018-09-30T18:11:26.138Z,100886.18
2018-09-30T18:13:54.778Z,100891.42
2018-09-30T18:16:23.423Z,100883.34
2018-09-30T18:18:51.980Z,100884.69
2018-09-30T18:21:20.513Z,100879.64
2018-09-30T18:23:49.294Z,100874.64
2018-09-30T18:26:17.948Z,100882.95
2018-09-30T18:28:46.814Z,100877.95
2018-09-30T18:31:15.553Z,100880.27
2018-09-30T18:36:26.850Z,100882.28
2018-09-30T18:38:55.584Z,100877.70
2018-09-30T18:41:24.140Z,100888.16
2018-09-30T18:43:52.941Z,100883.52
2018-09-30T18:46:21.636Z,100882.75
2018-09-30T18:48:50.222Z,100882.41
2018-09-30T18:51:18.809Z,100882.48
2018-09-30T18:53:47.625Z,100877.40
2018-09-30T18:56:16.438Z,100880.49
2018-09-30T18:58:44.956Z,100876.27
2018-09-30T19:01:13.557Z,100868.59
2018-09-30T19:03:42.137Z,100876.38
2018-09-30T19:06:10.825Z,100864.80
2018-09-30T19:08:39.414Z,100871.72
2018-09-30T19:11:08.132Z,100870.03
2018-09-30T19:13:36.875Z,100871.36
2018-09-30T19:16:05.929Z,100870.10
2018-09-30T19:18:34.603Z,100879.16
2018-09-30T19:21:03.645Z,100872.75
2018-09-30T19:23:32.264Z,100865.94
2018-09-30T19:26:01.034Z,100871.55
2018-09-30T19:28:29.710Z,100871.19
2018-09-30T19:30:58.387Z,100878.91
2018-09-30T19:33:26.955Z,100874.65
2018-09-30T19:35:55.672Z,100873.78
2018-09-30T19:38:24.397Z,100873.84
2018-09-30T19:40:53.684Z,100871.70
2018-09-30T19:43:23.245Z,100875.13
2018-09-30T19:45:52.052Z,100868.29
2018-09-30T19:48:20.836Z,100867.45
2018-09-30T19:50:49.757Z,100860.61
2018-09-30T19:53:18.599Z,100861.06
2018-09-30T19:55:47.252Z,100867.11
2018-09-30T19:58:15.890Z,100865.02
2018-09-30T20:00:44.552Z,100861.14
2018-09-30T20:03:13.191Z,100869.33
2018-09-30T20:05:41.906Z,100858.19
2018-09-30T20:08:10.566Z,100854.77
2018-09-30T20:10:39.467Z,100852.68
2018-09-30T20:13:08.079Z,100856.98
2018-09-30T20:15:36.724Z,100856.60
2018-09-30T20:18:05.480Z,100851.88
2018-09-30T20:20:34.226Z,100852.78
2018-09-30T20:23:04.386Z,100857.06
2018-09-30T20:25:33.002Z,100857.55
2018-09-30T20:28:02.293Z,100856.27
2018-09-30T20:30:30.968Z,100851.16
2018-09-30T20:32:59.621Z,100846.89
2018-09-30T20:35:28.344Z,100844.31
2018-09-30T20:37:57.090Z,100844.30
2018-09-30T20:40:25.817Z,100845.62
2018-09-30T20:42:54.406Z,100844.33
2018-09-30T20:45:23.021Z,100841.78
2018-09-30T20:47:51.627Z,100841.77
2018-09-30T20:50:20.302Z,100845.20
2018-09-30T20:52:49.046Z,100847.35
2018-09-30T20:55:17.735Z,100849.07
2018-09-30T20:57:46.495Z,100840.08
2018-09-30T21:00:15.279Z,100831.06
2018-09-30T21:02:44.061Z,100831.94
2018-09-30T21:05:25.271Z,100833.67
2018-09-30T21:07:54.204Z,100830.27
2018-09-30T21:10:22.812Z,100834.56
2018-09-30T21:12:51.457Z,100829.42
2018-09-30T21:15:20.276Z,100828.58
2018-09-30T21:17:48.854Z,100834.61
2018-09-30T21:20:17.471Z,100827.30
2018-09-30T21:22:46.160Z,100827.31
2018-09-30T21:25:14.865Z,100826.03
2018-09-30T21:27:43.484Z,100822.61
2018-09-30T21:30:12.122Z,100816.61
2018-09-30T21:32:40.816Z,100817.48
2018-09-30T21:35:09.548Z,100818.34
2018-09-30T21:37:38.365Z,100812.36
2018-09-30T21:40:07.147Z,100814.92
2018-09-30T21:42:35.969Z,100808.48
2018-09-30T21:45:04.725Z,100808.07
2018-09-30T21:47:33.550Z,100809.38
2018-09-30T21:50:03.460Z,100801.23
2018-09-30T21:52:32.201Z,100805.10
2018-09-30T21:55:01.101Z,100802.95
2018-09-30T21:57:29.675Z,100799.11
2018-09-30T21:59:58.226Z,100800.83
2018-09-30T22:02:26.874Z,100792.67
2018-09-30T22:04:55.549Z,100787.55
2018-09-30T22:07:24.164Z,100781.56
2018-09-30T22:09:52.715Z,100783.25
2018-09-30T22:12:21.320Z,100780.30
2018-09-30T22:14:50.203Z,100784.15
2018-09-30T22:17:19.015Z,100783.70
2018-09-30T22:19:47.582Z,100784.56
2018-09-30T22:22:16.263Z,100780.28
2018-09-30T22:24:44.812Z,100770.00
2018-09-30T22:27:13.595Z,100772.14
2018-09-30T22:29:42.169Z,100770.86
2018-09-30T22:32:10.763Z,100764.03
2018-09-30T22:34:39.291Z,100765.73
2018-09-30T22:37:07.828Z,100763.59
2018-09-30T22:39:36.502Z,100770.88
2018-09-30T22:42:05.303Z,100766.63
2018-09-30T22:44:34.021Z,100763.18
2018-09-30T22:47:02.685Z,100771.32
2018-09-30T22:49:31.155Z,100779.02
2018-09-30T22:51:59.806Z,100773.91
2018-09-30T22:54:28.476Z,100765.77
2018-09-30T22:56:57.148Z,100763.20
2018-09-30T22:59:25.985Z,100757.64
2018-09-30T23:01:54.583Z,100761.48
2018-09-30T23:04:23.196Z,100758.95
2018-09-30T23:06:51.998Z,100761.50
2018-09-30T23:09:20.603Z,100760.63
2018-09-30T23:11:49.288Z,100764.07
2018-09-30T23:14:17.883Z,100761.91
2018-09-30T23:16:46.534Z,100762.79
2018-09-30T23:19:15.195Z,100754.23
2018-09-30T23:21:43.822Z,100753.79
2018-09-30T23:24:12.604Z,100752.08
2018-09-30T23:26:41.127Z,100761.50
2018-09-30T23:31:37.513Z,100760.22
2018-09-30T23:34:06.533Z,100752.53
2018-09-30T23:36:35.145Z,100752.95
2018-09-30T23:39:04.915Z,100752.08
2018-09-30T23:41:33.548Z,100752.08
2018-09-30T23:44:02.758Z,100749.08
2018-09-30T23:46:31.337Z,100750.38
2018-09-30T23:49:00.024Z,100748.23
2018-09-30T23:51:28.685Z,100746.97
2018-09-30T23:53:57.362Z,100750.81
2018-09-30T23:56:26.012Z,100746.09
2018-09-30T23:58:54.562Z,100747.37
